Time;durP1;ratioP1;P1;durP2;ratioP2;P2;SDS_P1;SDS_P2;PMS_P1;PMS_P2;Temp;Humidity;BMP_temperature;BMP_pressure;BME280_temperature;BME280_humidity;BME280_pressure;Samples;Min_cycle;Max_cycle;Signal;HPM_P1;HPM_P2
2022/06/27 00:02:24;;;;;;;;;;;;;;;18.75;100.00;101626.97;4981229;28;20371;-79
2022/06/27 00:04:49;;;;;;;;;;;;;;;18.73;100.00;101621.75;4962238;28;19974;-78
2022/06/27 00:07:15;;;;;;;;;;;;;;;18.72;100.00;101619.25;4979136;28;19933;-79
2022/06/27 00:09:40;;;;;;;;;;;;;;;18.69;100.00;101609.63;4978080;28;20359;-78
2022/06/27 00:12:06;;;;;;;;;;;;;;;18.71;100.00;101612.94;4974026;28;19909;-79
2022/06/27 00:14:31;;;;;;;;;;;;;;;18.69;100.00;101616.97;4977634;28;19918;-78
2022/06/27 00:16:57;;;;;;;;;;;;;;;18.69;100.00;101619.69;4974511;28;20009;-79
2022/06/27 00:19:22;;;;;;;;;;;;;;;18.67;100.00;101621.81;4977621;28;19921;-79
2022/06/27 00:21:47;;;;;;;;;;;;;;;18.65;100.00;101613.88;4976782;28;19914;-79
2022/06/27 00:24:12;;;;;;;;;;;;;;;18.63;100.00;101618.72;4975012;28;20390;-79
2022/06/27 00:26:38;;;;;;;;;;;;;;;18.64;100.00;101614.97;4978570;28;19921;-78
2022/06/27 00:29:03;;;;;;;;;;;;;;;18.63;100.00;101617.91;4975198;28;20034;-79
2022/06/27 00:31:29;;;;;;;;;;;;;;;18.61;100.00;101618.16;4978471;28;19914;-78
2022/06/27 00:33:54;;;;;;;;;;;;;;;18.58;100.00;101615.88;4976194;28;19989;-79
2022/06/27 00:36:19;;;;;;;;;;;;;;;18.57;100.00;101624.28;4974892;28;20229;-79
2022/06/27 00:38:44;;;;;;;;;;;;;;;18.55;100.00;101629.97;4977098;28;20374;-79
2022/06/27 00:41:09;;;;;;;;;;;;;;;18.51;100.00;101626.06;4977078;28;20029;-79
2022/06/27 00:43:35;;;;;;;;;;;;;;;18.36;100.00;101599.22;4960712;28;19914;-79
2022/06/27 00:46:00;;;;;;;;;;;;;;;18.51;100.00;101620.59;4975757;28;19921;-80
2022/06/27 00:48:25;;;;;;;;;;;;;;;18.48;100.00;101616.44;4977879;28;20355;-79
2022/06/27 00:50:51;;;;;;;;;;;;;;;18.44;100.00;101617.13;4977548;28;19914;-79
2022/06/27 00:53:16;;;;;;;;;;;;;;;18.40;100.00;101613.19;4978384;28;19949;-79
2022/06/27 00:55:41;;;;;;;;;;;;;;;18.35;100.00;101605.72;4974678;28;20140;-79
2022/06/27 00:58:07;;;;;;;;;;;;;;;18.36;100.00;101604.66;4976782;28;19910;-79
2022/06/27 01:00:32;;;;;;;;;;;;;;;18.35;100.00;101604.91;4978131;28;19914;-78
2022/06/27 01:02:58;;;;;;;;;;;;;;;18.29;100.00;101599.31;4977398;28;19941;-79
2022/06/27 01:05:23;;;;;;;;;;;;;;;18.27;100.00;101593.25;4977513;28;19914;-79
2022/06/27 01:07:48;;;;;;;;;;;;;;;18.26;100.00;101598.94;4975648;28;20364;-79
2022/06/27 01:10:15;;;;;;;;;;;;;;;18.21;100.00;101596.91;4976975;28;19914;-79
2022/06/27 01:12:41;;;;;;;;;;;;;;;18.28;100.00;101599.56;4976919;28;19925;-79
2022/06/27 01:15:07;;;;;;;;;;;;;;;18.31;100.00;101599.09;4977474;28;19913;-79
2022/06/27 01:17:33;;;;;;;;;;;;;;;18.34;100.00;101600.50;4973841;28;19910;-79
2022/06/27 01:19:58;;;;;;;;;;;;;;;18.29;100.00;101595.75;4977677;28;20088;-78
2022/06/27 01:22:23;;;;;;;;;;;;;;;18.30;100.00;101600.13;4975387;28;19914;-79
2022/06/27 01:24:49;;;;;;;;;;;;;;;18.27;100.00;101606.88;4972819;28;19926;-80
2022/06/27 01:27:14;;;;;;;;;;;;;;;18.28;100.00;101605.00;4956775;29;19910;-79
2022/06/27 01:29:39;;;;;;;;;;;;;;;18.24;100.00;101603.78;4965110;28;19914;-78
2022/06/27 01:32:05;;;;;;;;;;;;;;;18.18;100.00;101616.44;4976762;28;19933;-78
2022/06/27 01:34:31;;;;;;;;;;;;;;;18.15;100.00;101614.19;4973640;28;19964;-79
2022/06/27 01:36:56;;;;;;;;;;;;;;;18.14;100.00;101601.59;4974732;28;19918;-79
2022/06/27 01:39:25;;;;;;;;;;;;;;;18.11;100.00;101602.06;4975462;28;19996;-78
2022/06/27 01:41:52;;;;;;;;;;;;;;;18.03;100.00;101597.75;4973245;28;19926;-78
2022/06/27 01:44:18;;;;;;;;;;;;;;;18.02;100.00;101598.84;4970995;28;19981;-78
2022/06/27 01:46:46;;;;;;;;;;;;;;;18.02;100.00;101598.00;4975039;28;19997;-79
2022/06/27 01:49:12;;;;;;;;;;;;;;;17.99;100.00;101601.19;4957283;29;20316;-79
2022/06/27 01:51:38;;;;;;;;;;;;;;;17.92;100.00;101605.88;4972730;28;19914;-79
2022/06/27 01:54:04;;;;;;;;;;;;;;;17.84;100.00;101602.38;4974732;28;20403;-79
2022/06/27 01:56:30;;;;;;;;;;;;;;;17.82;100.00;101604.53;4980513;28;19914;-79
2022/06/27 01:58:59;;;;;;;;;;;;;;;17.76;100.00;101594.53;4980143;28;19925;-79
2022/06/27 02:01:27;;;;;;;;;;;;;;;17.76;100.00;101602.72;4977058;28;19910;-79
2022/06/27 02:03:53;;;;;;;;;;;;;;;17.74;100.00;101593.91;4973512;28;19910;-79
2022/06/27 02:06:18;;;;;;;;;;;;;;;17.74;100.00;101588.44;4976686;28;20162;-78
2022/06/27 02:08:46;;;;;;;;;;;;;;;17.72;100.00;101584.31;4958502;28;20331;-79
2022/06/27 02:11:11;;;;;;;;;;;;;;;17.63;100.00;101591.94;4975616;28;19937;-78
2022/06/27 02:13:36;;;;;;;;;;;;;;;17.61;100.00;101581.31;4976511;28;19917;-78
2022/06/27 02:16:12;;;;;;;;;;;;;;;17.62;100.00;101590.28;4959167;28;19914;-79
2022/06/27 02:18:38;;;;;;;;;;;;;;;17.63;100.00;101593.84;4976260;28;19910;-79
2022/06/27 02:21:04;;;;;;;;;;;;;;;17.65;100.00;101598.00;4973309;28;20348;-79
2022/06/27 02:23:30;;;;;;;;;;;;;;;17.68;100.00;101594.84;4975039;28;19938;-78
2022/06/27 02:25:55;;;;;;;;;;;;;;;17.69;100.00;101593.75;4976816;28;20329;-78
2022/06/27 02:28:22;;;;;;;;;;;;;;;17.70;100.00;101589.97;4973901;28;19917;-80
2022/06/27 02:30:47;;;;;;;;;;;;;;;17.70;100.00;101589.97;4975289;28;20064;-78
2022/06/27 02:33:13;;;;;;;;;;;;;;;17.61;100.00;101585.88;4975098;28;20005;-78
2022/06/27 02:35:39;;;;;;;;;;;;;;;17.60;100.00;101585.06;4973373;28;19977;-79
2022/06/27 02:38:05;;;;;;;;;;;;;;;17.59;100.00;101574.41;4975777;28;19914;-78
2022/06/27 02:40:30;;;;;;;;;;;;;;;17.64;100.00;101569.09;4972777;28;20375;-79
2022/06/27 02:42:57;;;;;;;;;;;;;;;17.68;100.00;101564.91;4976734;28;19914;-79
2022/06/27 02:45:40;;;;;;;;;;;;;;;17.70;100.00;101565.47;4976427;28;19910;-78
2022/06/27 02:48:07;;;;;;;;;;;;;;;17.66;100.00;101558.84;4978079;28;19986;-79
2022/06/27 02:50:34;;;;;;;;;;;;;;;17.66;100.00;101558.84;4981513;28;20534;-79
2022/06/27 02:53:02;;;;;;;;;;;;;;;17.66;100.00;101564.28;4977636;28;19960;-79
2022/06/27 02:55:29;;;;;;;;;;;;;;;17.71;100.00;101555.41;4976010;28;19921;-78
2022/06/27 02:57:59;;;;;;;;;;;;;;;17.79;100.00;101550.53;4975419;28;19913;-78
2022/06/27 03:00:26;;;;;;;;;;;;;;;17.91;100.00;101544.31;4975888;28;19910;-79
2022/06/27 03:02:52;;;;;;;;;;;;;;;18.10;100.00;101548.66;4975679;28;19938;-79
2022/06/27 03:05:17;;;;;;;;;;;;;;;18.34;100.00;101548.72;4976671;28;19957;-79
2022/06/27 03:07:43;;;;;;;;;;;;;;;18.34;100.00;101537.84;4967634;28;19922;-79
2022/06/27 03:10:10;;;;;;;;;;;;;;;18.16;100.00;101538.75;4955852;29;19914;-79
2022/06/27 03:12:35;;;;;;;;;;;;;;;18.07;100.00;101546.38;4957923;28;19910;-79
2022/06/27 03:15:00;;;;;;;;;;;;;;;18.21;100.00;101550.59;4974310;28;20336;-79
2022/06/27 03:17:25;;;;;;;;;;;;;;;18.70;100.00;101556.75;4971385;28;19925;-79
2022/06/27 03:19:51;;;;;;;;;;;;;;;18.88;100.00;101552.31;4977165;28;20362;-78
2022/06/27 03:22:17;;;;;;;;;;;;;;;18.64;100.00;101557.72;4961655;28;20371;-79
2022/06/27 03:24:42;;;;;;;;;;;;;;;18.53;100.00;101562.06;4980388;28;20010;-79
2022/06/27 03:27:08;;;;;;;;;;;;;;;19.00;100.00;101564.88;4977939;28;19945;-79
2022/06/27 03:29:33;;;;;;;;;;;;;;;19.42;100.00;101555.72;4980484;28;19921;-79
2022/06/27 03:31:58;;;;;;;;;;;;;;;19.95;100.00;101566.41;4979718;28;19976;-79
2022/06/27 03:34:23;;;;;;;;;;;;;;;20.18;100.00;101565.50;4977675;28;20021;-80
2022/06/27 03:36:49;;;;;;;;;;;;;;;20.49;100.00;101554.28;4963521;28;19930;-80
2022/06/27 03:39:14;;;;;;;;;;;;;;;20.29;100.00;101549.28;4977801;28;19914;-79
2022/06/27 03:41:40;;;;;;;;;;;;;;;20.16;100.00;101550.41;4974078;28;19914;-79
2022/06/27 03:44:08;;;;;;;;;;;;;;;19.69;100.00;101548.69;4977504;28;20348;-79
2022/06/27 03:46:33;;;;;;;;;;;;;;;19.52;100.00;101541.47;4976657;28;20289;-79
2022/06/27 03:51:43;;;;;;;;;;;;;;;19.17;100.00;101528.69;4978003;28;19921;-78
2022/06/27 03:54:08;;;;;;;;;;;;;;;19.12;100.00;101514.94;4975022;28;19922;-79
2022/06/27 03:56:33;;;;;;;;;;;;;;;19.17;100.00;101513.19;4977798;28;19976;-78
2022/06/27 03:58:58;;;;;;;;;;;;;;;19.37;100.00;101523.69;4959818;28;19929;-79
2022/06/27 04:01:25;;;;;;;;;;;;;;;19.42;100.00;101522.97;4979285;28;19910;-79
2022/06/27 04:03:50;;;;;;;;;;;;;;;19.92;100.00;101527.84;4986705;28;19911;-79
2022/06/27 04:06:15;;;;;;;;;;;;;;;20.54;100.00;101540.75;4981408;28;20274;-79
2022/06/27 04:08:41;;;;;;;;;;;;;;;20.85;100.00;101531.94;4977148;29;19922;-79
2022/06/27 04:11:06;;;;;;;;;;;;;;;21.49;100.00;101538.88;4986941;28;19914;-79
2022/06/27 04:13:31;;;;;;;;;;;;;;;21.79;100.00;101538.44;4974104;28;19989;-79
2022/06/27 04:15:56;;;;;;;;;;;;;;;20.95;100.00;101530.44;4970066;28;19952;-78
2022/06/27 04:18:21;;;;;;;;;;;;;;;20.29;100.00;101527.41;4981827;28;19965;-76
2022/06/27 04:20:47;;;;;;;;;;;;;;;19.91;100.00;101537.09;4979542;28;19953;-80
2022/06/27 04:23:12;;;;;;;;;;;;;;;19.76;100.00;101531.34;4977591;28;19914;-80
2022/06/27 04:25:37;;;;;;;;;;;;;;;19.60;100.00;101511.91;4960457;28;20529;-81
2022/06/27 04:28:02;;;;;;;;;;;;;;;19.33;100.00;101497.13;4998425;28;20391;-81
2022/06/27 04:30:28;;;;;;;;;;;;;;;19.19;100.00;101480.19;4995715;28;19909;-82
2022/06/27 04:32:54;;;;;;;;;;;;;;;19.13;100.00;101476.50;4999036;28;19926;-82
2022/06/27 04:35:19;;;;;;;;;;;;;;;19.10;100.00;101466.06;4999517;28;20002;-81
2022/06/27 04:37:45;;;;;;;;;;;;;;;19.14;100.00;101459.09;4985090;28;19989;-81
2022/06/27 04:40:11;;;;;;;;;;;;;;;19.21;100.00;101445.31;4991986;28;19961;-82
2022/06/27 04:42:36;;;;;;;;;;;;;;;19.30;100.00;101456.66;4991765;28;19933;-81
2022/06/27 04:45:03;;;;;;;;;;;;;;;19.66;100.00;101450.03;4978968;28;19996;-80
2022/06/27 04:47:28;;;;;;;;;;;;;;;20.04;100.00;101459.50;4981803;28;19941;-79
2022/06/27 04:49:54;;;;;;;;;;;;;;;20.38;100.00;101457.59;4986101;28;19953;-80
2022/06/27 04:52:20;;;;;;;;;;;;;;;20.84;100.00;101450.97;4983023;28;19914;-80
2022/06/27 04:54:45;;;;;;;;;;;;;;;20.98;100.00;101440.47;4981266;28;19985;-80
2022/06/27 04:57:12;;;;;;;;;;;;;;;21.13;100.00;101436.31;4960013;28;19964;-79
2022/06/27 04:59:49;;;;;;;;;;;;;;;21.10;100.00;101427.50;4979750;28;19910;-80
2022/06/27 05:02:15;;;;;;;;;;;;;;;20.82;100.00;101430.41;4983859;28;19910;-81
2022/06/27 05:04:40;;;;;;;;;;;;;;;20.65;100.00;101434.00;4969891;28;19925;-80
2022/06/27 05:07:05;;;;;;;;;;;;;;;21.18;100.00;101433.63;4986093;28;19922;-80
2022/06/27 05:09:31;;;;;;;;;;;;;;;21.32;100.00;101438.47;4985221;28;19965;-80
2022/06/27 05:11:56;;;;;;;;;;;;;;;21.02;100.00;101436.16;4982244;28;19945;-80
2022/06/27 05:14:21;;;;;;;;;;;;;;;21.06;100.00;101444.69;4978216;28;19917;-80
2022/06/27 05:16:47;;;;;;;;;;;;;;;21.01;100.00;101447.34;4966217;28;19929;-81
2022/06/27 05:19:18;;;;;;;;;;;;;;;21.19;100.00;101449.78;4999351;28;19981;-81
2022/06/27 05:24:19;;;;;;;;;;;;;;;21.52;100.00;101437.91;4961483;29;19930;-81
2022/06/27 05:26:45;;;;;;;;;;;;;;;21.82;100.00;101447.53;4969432;28;19909;-81
2022/06/27 05:29:11;;;;;;;;;;;;;;;22.02;100.00;101444.16;4961818;28;19911;-80
2022/06/27 05:31:36;;;;;;;;;;;;;;;22.07;100.00;101449.66;4969118;28;19960;-79
2022/06/27 05:34:01;;;;;;;;;;;;;;;22.26;100.00;101447.41;4957666;28;19951;-81
2022/06/27 05:36:28;;;;;;;;;;;;;;;22.15;100.00;101451.09;4957520;29;19961;-80
2022/06/27 05:39:01;;;;;;;;;;;;;;;22.26;100.00;101442.75;4959148;29;20520;-80
2022/06/27 05:41:27;;;;;;;;;;;;;;;22.07;100.00;101437.88;4956118;28;19921;-81
2022/06/27 05:43:53;;;;;;;;;;;;;;;22.08;100.00;101434.06;4957694;28;19922;-80
2022/06/27 05:46:19;;;;;;;;;;;;;;;22.08;100.00;101437.59;4959171;29;19914;-80
2022/06/27 05:48:47;;;;;;;;;;;;;;;21.97;100.00;101428.47;4955210;28;20332;-81
2022/06/27 05:51:12;;;;;;;;;;;;;;;21.92;100.00;101433.06;4959387;28;20000;-80
2022/06/27 05:53:38;;;;;;;;;;;;;;;21.86;100.00;101424.00;4955714;28;20022;-79
2022/06/27 05:56:04;;;;;;;;;;;;;;;21.79;100.00;101415.19;4969814;28;19925;-79
2022/06/27 05:58:31;;;;;;;;;;;;;;;21.74;100.00;101420.59;4954718;28;19918;-80
2022/06/27 06:00:57;;;;;;;;;;;;;;;21.61;100.00;101402.66;4962101;28;19922;-81
2022/06/27 06:03:22;;;;;;;;;;;;;;;21.54;100.00;101405.59;4984268;28;19945;-81
2022/06/27 06:05:48;;;;;;;;;;;;;;;21.49;100.00;101408.28;4981549;28;19910;-81
2022/06/27 06:08:14;;;;;;;;;;;;;;;21.55;100.00;101403.69;4971459;28;19911;-81
2022/06/27 06:10:39;;;;;;;;;;;;;;;21.46;100.00;101395.13;4963346;29;20053;-81
2022/06/27 06:13:05;;;;;;;;;;;;;;;21.57;100.00;101394.13;4962614;29;19946;-81
2022/06/27 06:15:31;;;;;;;;;;;;;;;21.69;100.00;101398.59;4964419;29;20001;-81
2022/06/27 06:17:57;;;;;;;;;;;;;;;21.77;100.00;101398.16;4964030;28;19911;-81
2022/06/27 06:20:22;;;;;;;;;;;;;;;21.85;100.00;101388.63;4963736;29;19910;-81
2022/06/27 06:23:06;;;;;;;;;;;;;;;21.79;100.00;101387.78;4963997;28;20376;-82
2022/06/27 06:25:32;;;;;;;;;;;;;;;21.88;100.00;101388.13;4963627;29;19910;-82
2022/06/27 06:28:00;;;;;;;;;;;;;;;21.74;100.00;101374.03;4963298;28;19960;-81
2022/06/27 06:30:26;;;;;;;;;;;;;;;21.82;100.00;101376.31;4962406;29;19910;-82
2022/06/27 06:32:52;;;;;;;;;;;;;;;21.72;100.00;101385.25;4961239;29;19991;-81
2022/06/27 06:35:18;;;;;;;;;;;;;;;21.72;100.00;101378.91;4961976;29;20262;-81
2022/06/27 06:37:44;;;;;;;;;;;;;;;21.85;100.00;101375.75;4960618;29;19921;-82
2022/06/27 06:40:10;;;;;;;;;;;;;;;21.89;100.00;101376.09;4960679;29;19911;-81
2022/06/27 06:42:36;;;;;;;;;;;;;;;21.88;100.00;101380.72;4961223;29;19993;-82
2022/06/27 06:45:02;;;;;;;;;;;;;;;21.93;100.00;101375.28;4960320;28;19949;-82
2022/06/27 06:47:27;;;;;;;;;;;;;;;22.03;100.00;101375.38;4962524;28;19910;-82
2022/06/27 06:49:53;;;;;;;;;;;;;;;22.12;100.00;101367.50;4963340;29;19921;-82
2022/06/27 06:52:19;;;;;;;;;;;;;;;22.09;100.00;101369.94;4977836;28;19928;-82
2022/06/27 06:54:45;;;;;;;;;;;;;;;22.13;100.00;101368.31;4984744;28;19926;-82
2022/06/27 06:57:10;;;;;;;;;;;;;;;22.22;100.00;101370.34;4984973;28;19917;-81
2022/06/27 06:59:36;;;;;;;;;;;;;;;22.14;100.00;101375.44;4985882;28;19917;-81
2022/06/27 07:02:03;;;;;;;;;;;;;;;22.23;100.00;101373.91;4961558;28;19937;-81
2022/06/27 07:04:29;;;;;;;;;;;;;;;22.27;100.00;101375.03;4968122;29;19910;-81
2022/06/27 07:07:13;;;;;;;;;;;;;;;22.29;100.00;101378.34;4967946;28;19926;-81
2022/06/27 07:09:39;;;;;;;;;;;;;;;22.42;100.00;101374.31;4964882;29;19910;-81
2022/06/27 07:12:05;;;;;;;;;;;;;;;22.56;100.00;101372.75;4949492;29;19924;-81
2022/06/27 07:14:31;;;;;;;;;;;;;;;22.73;100.00;101367.91;4967939;29;19914;-82
2022/06/27 07:16:56;;;;;;;;;;;;;;;22.90;100.00;101369.63;4969317;29;19921;-82
2022/06/27 07:19:22;;;;;;;;;;;;;;;23.02;100.00;101373.00;4968048;29;20396;-82
2022/06/27 07:21:47;;;;;;;;;;;;;;;23.05;100.00;101371.66;4969378;29;19953;-81
2022/06/27 07:24:12;;;;;;;;;;;;;;;23.10;100.00;101375.22;4971350;28;19922;-82
2022/06/27 07:26:38;;;;;;;;;;;;;;;23.08;100.00;101371.09;4968473;29;20333;-81
2022/06/27 07:29:05;;;;;;;;;;;;;;;23.02;100.00;101366.69;4967162;29;19925;-81
2022/06/27 07:31:30;;;;;;;;;;;;;;;22.85;100.00;101356.72;4968391;29;19974;-82
2022/06/27 07:33:56;;;;;;;;;;;;;;;22.75;100.00;101356.69;4966845;29;19961;-82
2022/06/27 07:36:25;;;;;;;;;;;;;;;22.83;100.00;101356.16;4969069;28;19969;-82
2022/06/27 07:38:52;;;;;;;;;;;;;;;22.88;100.00;101356.19;4969543;28;19910;-82
2022/06/27 07:41:20;;;;;;;;;;;;;;;22.88;100.00;101350.69;4970647;29;19910;-81
2022/06/27 07:43:46;;;;;;;;;;;;;;;22.93;100.00;101348.00;4968379;28;19979;-82
2022/06/27 07:46:12;;;;;;;;;;;;;;;23.12;100.00;101342.03;4969139;28;20404;-82
2022/06/27 07:48:38;;;;;;;;;;;;;;;23.38;100.00;101342.91;4969108;29;19960;-83
2022/06/27 07:51:03;;;;;;;;;;;;;;;23.41;100.00;101336.84;4969459;29;19918;-82
2022/06/27 07:53:29;;;;;;;;;;;;;;;23.40;100.00;101335.22;4970924;29;19976;-82
2022/06/27 07:55:57;;;;;;;;;;;;;;;23.58;100.00;101351.19;4969383;29;19922;-82
2022/06/27 07:58:30;;;;;;;;;;;;;;;23.83;100.00;101355.88;4971339;28;19921;-82
2022/06/27 08:00:56;;;;;;;;;;;;;;;23.64;100.00;101357.50;4968105;28;19910;-82
2022/06/27 08:03:40;;;;;;;;;;;;;;;23.46;100.00;101367.09;4969511;29;19958;-82
2022/06/27 08:06:05;;;;;;;;;;;;;;;23.38;100.00;101368.47;4968437;28;19918;-80
2022/06/27 08:08:32;;;;;;;;;;;;;;;23.54;100.00;101376.72;4965204;29;20325;-81
2022/06/27 08:10:57;;;;;;;;;;;;;;;23.65;100.00;101375.66;4966198;29;19911;-82
2022/06/27 08:13:23;;;;;;;;;;;;;;;23.73;100.00;101382.53;4987053;28;19910;-83
2022/06/27 08:15:48;;;;;;;;;;;;;;;23.60;100.00;101389.38;4981054;28;19973;-82
2022/06/27 08:18:17;;;;;;;;;;;;;;;23.38;100.00;101397.84;4979827;28;19946;-82
2022/06/27 08:20:50;;;;;;;;;;;;;;;23.18;100.00;101393.94;4988673;28;19950;-82
2022/06/27 08:23:20;;;;;;;;;;;;;;;22.89;100.00;101392.69;4975528;29;19933;-82
2022/06/27 08:28:48;;;;;;;;;;;;;;;22.20;100.00;101399.09;4970864;29;19922;-81
2022/06/27 08:31:14;;;;;;;;;;;;;;;22.11;100.00;101398.72;4968278;29;19910;-82
2022/06/27 08:33:43;;;;;;;;;;;;;;;21.87;100.00;101400.16;4973757;28;19981;-81
2022/06/27 08:36:11;;;;;;;;;;;;;;;21.75;100.00;101409.34;4968479;28;19921;-81
2022/06/27 08:38:52;;;;;;;;;;;;;;;21.58;100.00;101417.69;4982206;28;19910;-82
2022/06/27 08:41:36;;;;;;;;;;;;;;;21.43;100.00;101417.53;5087076;23;19988;-81
2022/06/27 08:44:13;;;;;;;;;;;;;;;21.43;100.00;101423.00;5036129;28;19956;-81
2022/06/27 08:46:40;;;;;;;;;;;;;;;21.35;100.00;101448.09;5039606;28;19907;-82
2022/06/27 08:49:20;;;;;;;;;;;;;;;21.28;100.00;101448.25;5039832;28;19921;-82
2022/06/27 08:51:45;;;;;;;;;;;;;;;21.24;100.00;101447.09;5037875;28;19968;-82
2022/06/27 09:03:08;;;;;;;;;;;;;;;20.73;100.00;101451.03;4964318;28;19931;-82
2022/06/27 09:05:34;;;;;;;;;;;;;;;20.59;100.00;101456.88;5019511;28;19918;-82
2022/06/27 09:08:04;;;;;;;;;;;;;;;20.42;100.00;101439.63;5038934;28;19921;-83
2022/06/27 09:10:31;;;;;;;;;;;;;;;20.54;100.00;101469.66;5021697;28;19927;-82
2022/06/27 09:13:01;;;;;;;;;;;;;;;20.75;100.00;101470.78;5021544;28;19989;-82
2022/06/27 09:15:46;;;;;;;;;;;;;;;20.71;100.00;101461.44;5015777;28;19921;-82
2022/06/27 09:18:12;;;;;;;;;;;;;;;20.44;100.00;101451.16;5013618;28;19918;-82
2022/06/27 09:20:47;;;;;;;;;;;;;;;20.34;100.00;101464.66;4990795;28;19914;-82
2022/06/27 09:23:49;;;;;;;;;;;;;;;20.22;100.00;101439.28;4983606;28;19953;-83
2022/06/27 09:26:19;;;;;;;;;;;;;;;20.41;100.00;101452.47;4994748;28;19937;-82
2022/06/27 09:28:48;;;;;;;;;;;;;;;20.34;100.00;101460.00;4994186;28;19909;-82
2022/06/27 09:31:25;;;;;;;;;;;;;;;20.31;100.00;101443.28;5002637;28;19910;-82
2022/06/27 09:34:12;;;;;;;;;;;;;;;20.36;100.00;101446.09;5010579;28;20262;-82
2022/06/27 09:36:39;;;;;;;;;;;;;;;20.35;100.00;101428.84;5001762;28;19944;-82
2022/06/27 09:39:07;;;;;;;;;;;;;;;20.48;100.00;101435.06;4992856;28;19945;-82
2022/06/27 09:41:33;;;;;;;;;;;;;;;20.51;100.00;101431.88;5026458;28;20392;-82
2022/06/27 09:44:10;;;;;;;;;;;;;;;20.54;100.00;101425.91;5029941;28;19913;-83
2022/06/27 09:46:38;;;;;;;;;;;;;;;20.63;100.00;101422.50;5031265;28;19897;-82
2022/06/27 09:49:05;;;;;;;;;;;;;;;20.64;100.00;101421.41;5028668;28;19914;-82
2022/06/27 09:51:30;;;;;;;;;;;;;;;20.77;100.00;101422.97;5026489;28;19913;-83
2022/06/27 09:53:58;;;;;;;;;;;;;;;20.80;100.00;101422.47;5026965;28;19914;-82
2022/06/27 09:56:25;;;;;;;;;;;;;;;20.80;100.00;101425.19;5013298;28;19921;-82
2022/06/27 09:58:50;;;;;;;;;;;;;;;20.86;100.00;101437.00;5011499;28;19945;-82
2022/06/27 10:01:17;;;;;;;;;;;;;;;20.87;100.00;101438.69;5015420;28;19909;-83
2022/06/27 10:03:43;;;;;;;;;;;;;;;20.86;100.00;101429.66;5032115;28;19920;-83
2022/06/27 10:06:09;;;;;;;;;;;;;;;20.91;100.00;101434.38;5031229;28;19909;-82
2022/06/27 10:08:36;;;;;;;;;;;;;;;21.03;100.00;101440.56;5029910;28;19936;-82
2022/06/27 10:11:06;;;;;;;;;;;;;;;21.15;100.00;101436.84;5029440;28;19917;-81
2022/06/27 10:13:32;;;;;;;;;;;;;;;21.28;100.00;101442.78;5030598;28;19949;-82
2022/06/27 10:15:59;;;;;;;;;;;;;;;21.43;100.00;101449.56;5030059;28;19916;-82
2022/06/27 10:18:24;;;;;;;;;;;;;;;21.56;100.00;101439.03;5028932;28;19940;-82
2022/06/27 10:20:51;;;;;;;;;;;;;;;21.66;100.00;101442.97;5029634;28;19920;-81
2022/06/27 10:23:25;;;;;;;;;;;;;;;21.96;100.00;101446.00;5013498;28;19914;-82
2022/06/27 10:25:51;;;;;;;;;;;;;;;22.22;100.00;101440.81;5012074;28;19968;-82
2022/06/27 10:28:18;;;;;;;;;;;;;;;22.03;100.00;101435.66;5019099;28;20001;-81
2022/06/27 10:30:44;;;;;;;;;;;;;;;22.00;100.00;101438.94;5035424;28;19909;-81
2022/06/27 10:33:19;;;;;;;;;;;;;;;22.03;100.00;101448.53;5035016;28;19913;-81
2022/06/27 10:35:58;;;;;;;;;;;;;;;21.96;100.00;101445.19;5035210;28;19959;-83
2022/06/27 10:38:23;;;;;;;;;;;;;;;21.87;100.00;101457.69;5035418;28;19909;-82
2022/06/27 10:40:48;;;;;;;;;;;;;;;21.59;100.00;101467.81;5035405;28;19911;-82
2022/06/27 10:43:32;;;;;;;;;;;;;;;21.57;100.00;101464.50;5027638;28;19909;-82
2022/06/27 10:45:57;;;;;;;;;;;;;;;21.31;100.00;101458.69;5035741;28;19909;-83
2022/06/27 10:48:34;;;;;;;;;;;;;;;21.09;100.00;101452.38;5022771;28;20008;-83
2022/06/27 10:51:19;;;;;;;;;;;;;;;20.76;100.00;101432.25;5041887;28;19913;-82
2022/06/27 10:54:13;;;;;;;;;;;;;;;20.26;100.00;101411.22;5028920;28;19988;-82
2022/06/27 10:56:46;;;;;;;;;;;;;;;20.14;100.00;101378.53;5014754;28;20354;-82
2022/06/27 10:59:14;;;;;;;;;;;;;;;20.01;100.00;101384.31;5014864;28;19921;-82
2022/06/27 11:01:40;;;;;;;;;;;;;;;20.03;100.00;101404.00;5015416;28;19928;-82
2022/06/27 11:04:06;;;;;;;;;;;;;;;19.99;100.00;101399.28;5034608;28;19909;-81
2022/06/27 11:06:31;;;;;;;;;;;;;;;19.90;100.00;101421.56;5035908;28;19910;-86
2022/06/27 11:08:57;;;;;;;;;;;;;;;19.90;100.00;101478.06;5033485;28;19953;-84
2022/06/27 11:11:26;;;;;;;;;;;;;;;20.15;100.00;101494.94;5018358;28;19913;-82
2022/06/27 11:13:53;;;;;;;;;;;;;;;20.30;100.00;101468.97;5036309;28;19917;-81
2022/06/27 11:16:18;;;;;;;;;;;;;;;20.22;100.00;101453.78;5028669;28;19910;-84
2022/06/27 11:18:49;;;;;;;;;;;;;;;19.98;100.00;101442.19;5029623;28;19959;-80
2022/06/27 11:21:16;;;;;;;;;;;;;;;19.86;100.00;101428.56;5017463;28;19909;-80
2022/06/27 11:23:47;;;;;;;;;;;;;;;19.74;100.00;101427.00;5016168;28;19924;-80
2022/06/27 11:26:13;;;;;;;;;;;;;;;19.70;100.00;101435.69;5019887;28;19909;-80
2022/06/27 11:34:07;;;;;;;;;;;;;;;19.63;100.00;101393.16;5027014;28;19925;-79
2022/06/27 11:36:32;;;;;;;;;;;;;;;19.66;100.00;101377.16;5025288;28;19910;-81
2022/06/27 11:38:57;;;;;;;;;;;;;;;19.74;100.00;101375.13;5026587;28;19924;-81
2022/06/27 11:41:27;;;;;;;;;;;;;;;19.89;100.00;101343.41;5029757;28;19921;-82
2022/06/27 11:43:58;;;;;;;;;;;;;;;19.83;100.00;101357.22;5031467;28;19909;-81
2022/06/27 11:46:34;;;;;;;;;;;;;;;19.94;100.00;101361.81;5028518;28;19909;-82
2022/06/27 11:49:02;;;;;;;;;;;;;;;20.23;100.00;101375.34;5027711;28;19924;-82
2022/06/27 11:51:29;;;;;;;;;;;;;;;20.39;100.00;101369.88;5028484;28;19929;-80
2022/06/27 11:53:55;;;;;;;;;;;;;;;20.51;100.00;101361.63;5023484;28;19913;-82
2022/06/27 11:56:25;;;;;;;;;;;;;;;20.68;100.00;101364.31;5029114;28;19913;-82
2022/06/27 11:58:55;;;;;;;;;;;;;;;20.64;100.00;101344.03;5025837;28;20089;-81
2022/06/27 12:01:21;;;;;;;;;;;;;;;20.81;100.00;101352.16;5019230;28;19910;-81
2022/06/27 12:04:05;;;;;;;;;;;;;;;21.00;100.00;101348.03;5022033;28;19924;-81
2022/06/27 12:06:30;;;;;;;;;;;;;;;21.22;100.00;101344.44;5021236;28;19924;-81
2022/06/27 12:09:01;;;;;;;;;;;;;;;21.30;100.00;101341.25;5021719;28;19917;-81
2022/06/27 12:11:28;;;;;;;;;;;;;;;21.51;100.00;101315.75;5004780;28;19991;-81
2022/06/27 12:13:57;;;;;;;;;;;;;;;21.95;100.00;101317.47;5019855;28;19996;-81
2022/06/27 12:16:23;;;;;;;;;;;;;;;22.10;100.00;101308.56;5018478;28;19960;-81
2022/06/27 12:18:52;;;;;;;;;;;;;;;22.35;100.00;101302.41;5014676;28;20259;-81
2022/06/27 12:21:18;;;;;;;;;;;;;;;22.41;100.00;101304.09;5020740;28;19963;-82
2022/06/27 12:23:44;;;;;;;;;;;;;;;22.31;100.00;101304.88;5021051;28;20014;-81
2022/06/27 12:26:10;;;;;;;;;;;;;;;22.37;100.00;101303.81;5016722;28;19914;-81
2022/06/27 12:28:35;;;;;;;;;;;;;;;22.61;100.00;101300.63;5017614;28;19910;-80
2022/06/27 12:31:01;;;;;;;;;;;;;;;22.65;100.00;101299.00;5019700;28;19987;-81
2022/06/27 12:33:26;;;;;;;;;;;;;;;22.72;100.00;101294.13;5020088;28;20060;-81
2022/06/27 12:35:51;;;;;;;;;;;;;;;22.78;100.00;101283.97;5019615;28;19913;-81
2022/06/27 12:38:17;;;;;;;;;;;;;;;22.74;100.00;101284.50;5015281;28;19977;-81
2022/06/27 12:40:42;;;;;;;;;;;;;;;22.78;100.00;101275.72;5001028;28;19921;-80
2022/06/27 12:43:07;;;;;;;;;;;;;;;22.82;100.00;101279.59;5017684;28;19909;-81
2022/06/27 12:45:33;;;;;;;;;;;;;;;22.91;100.00;101276.06;5019090;28;19917;-80
2022/06/27 12:47:59;;;;;;;;;;;;;;;22.81;100.00;101275.19;5020505;28;19920;-81
2022/06/27 12:50:24;;;;;;;;;;;;;;;22.81;100.00;101283.44;5023770;28;19910;-82
2022/06/27 12:52:49;;;;;;;;;;;;;;;22.62;100.00;101283.09;5037794;28;20027;-81